Hauptseite
METAR-TAF:

METAR-TAF

Flughäfen :

Flughafen Riga

Riga, Lettland

Breite: 56-55N, Länge: 023-58E, Höhe: 10 m

Beobachtung

Neuester Wetterbericht von vor 10 Minuten, um 20:50 UTC
Wind 7 kt aus Nord/Nordwest, variierte zwischen West/Nordwest und Nord
Temperatur 7°C
Luftfeuchtigkeit 81%
Luftdruck 1025 hPa
Sichtweite 10 km oder mehr
keine Wolken unter 1500 m und keine Kumulonimbus oder Gewitterwolken

METAR: EVRA 202050Z 33007KT 290V350 CAVOK 07/04 Q1025 NOSIG

Zeit: 00:00 (21:00 UTC)

Prognose

Neuester Wetterbericht von vor 56 Minuten, um 20:04 UTC
Gültige Prognose vom 20 um 21 UTC bis 21 um 21 UTC
Wind 5 kt aus Nord
Sichtweite 10 km oder mehr
Aufgelockert bewölkt in der Höhe von 4000 ft
Übergehend zu
vom 21 um 08 UTC bis 21 um 10 UTC
Wind 9 kt aus Ost/Nordost

TAF: EVRA 202004Z 2021/2121 36005KT 9999 SCT040 BECMG 2108/2110 07009KT

Wetterbeobachtungen und Prognosen von mehr als 4000 Flughäfen (METAR und TAF Bericht).

Die verfügbaren Stationen werden durch gelbe und rote Markierungen auf der Karte dargestellt.

Führen Sie die Maus auf sie, um den Namen der Station zu sehen.

Darauf klicken, um die Beobachtung von Wetterbeobachtungen und Prognosen zu sehen.

Um die Karte zu ändern : klicken Sie auf den grünen Tasten mit einem schwarzen Kreuz Zum Vergrößern, auf den grünen Button mit einem Gedankenstrich zu verkleinern, oder auf die grünen Pfeile für benachbarte Karten.


METAR-TAF: